sensor_id;sensor_type;location;lat;lon;timestamp;P1;durP1;ratioP1;P2;durP2;ratioP2
31836;SDS011;18401;49.344;6.240;2023-06-26T00:01:57;5.72;;;3.67;;
31836;SDS011;18401;49.344;6.240;2023-06-26T00:04:23;7.45;;;4.15;;
31836;SDS011;18401;49.344;6.240;2023-06-26T00:06:49;7.82;;;4.75;;
31836;SDS011;18401;49.344;6.240;2023-06-26T00:09:14;6.15;;;3.83;;
31836;SDS011;18401;49.344;6.240;2023-06-26T00:11:40;7.68;;;4.07;;
31836;SDS011;18401;49.344;6.240;2023-06-26T00:14:05;6.40;;;4.05;;
31836;SDS011;18401;49.344;6.240;2023-06-26T00:16:31;4.63;;;3.58;;
31836;SDS011;18401;49.344;6.240;2023-06-26T00:18:57;8.75;;;4.43;;
31836;SDS011;18401;49.344;6.240;2023-06-26T00:21:24;6.55;;;4.00;;
31836;SDS011;18401;49.344;6.240;2023-06-26T00:23:50;8.10;;;4.85;;
31836;SDS011;18401;49.344;6.240;2023-06-26T00:26:16;8.88;;;3.85;;
31836;SDS011;18401;49.344;6.240;2023-06-26T00:28:43;8.98;;;3.90;;
31836;SDS011;18401;49.344;6.240;2023-06-26T00:31:09;14.70;;;4.65;;
31836;SDS011;18401;49.344;6.240;2023-06-26T00:33:34;9.90;;;4.20;;
31836;SDS011;18401;49.344;6.240;2023-06-26T00:36:00;10.88;;;4.25;;
31836;SDS011;18401;49.344;6.240;2023-06-26T00:38:26;7.95;;;3.80;;
31836;SDS011;18401;49.344;6.240;2023-06-26T00:40:51;5.80;;;3.85;;
31836;SDS011;18401;49.344;6.240;2023-06-26T00:43:17;7.15;;;3.92;;
31836;SDS011;18401;49.344;6.240;2023-06-26T00:45:43;6.95;;;3.72;;
31836;SDS011;18401;49.344;6.240;2023-06-26T00:48:09;7.35;;;4.05;;
31836;SDS011;18401;49.344;6.240;2023-06-26T00:50:38;4.90;;;3.97;;
31836;SDS011;18401;49.344;6.240;2023-06-26T00:53:06;4.85;;;3.42;;
31836;SDS011;18401;49.344;6.240;2023-06-26T00:55:33;7.55;;;4.80;;
31836;SDS011;18401;49.344;6.240;2023-06-26T00:57:59;6.50;;;4.60;;
31836;SDS011;18401;49.344;6.240;2023-06-26T01:00:25;6.95;;;4.47;;
31836;SDS011;18401;49.344;6.240;2023-06-26T01:02:51;9.88;;;4.30;;
31836;SDS011;18401;49.344;6.240;2023-06-26T01:05:17;6.72;;;4.55;;
31836;SDS011;18401;49.344;6.240;2023-06-26T01:07:49;8.27;;;4.95;;
31836;SDS011;18401;49.344;6.240;2023-06-26T01:10:15;8.13;;;4.20;;
31836;SDS011;18401;49.344;6.240;2023-06-26T01:12:41;6.93;;;4.28;;
31836;SDS011;18401;49.344;6.240;2023-06-26T01:15:08;4.68;;;3.80;;
31836;SDS011;18401;49.344;6.240;2023-06-26T01:17:34;6.25;;;3.95;;
31836;SDS011;18401;49.344;6.240;2023-06-26T01:20:03;7.75;;;4.13;;
31836;SDS011;18401;49.344;6.240;2023-06-26T01:22:53;6.22;;;4.00;;
31836;SDS011;18401;49.344;6.240;2023-06-26T01:26:15;10.07;;;4.97;;
31836;SDS011;18401;49.344;6.240;2023-06-26T01:28:33;7.32;;;4.70;;
31836;SDS011;18401;49.344;6.240;2023-06-26T01:31:00;5.72;;;4.30;;
31836;SDS011;18401;49.344;6.240;2023-06-26T01:33:28;9.15;;;4.90;;
31836;SDS011;18401;49.344;6.240;2023-06-26T01:35:54;8.25;;;4.40;;
31836;SDS011;18401;49.344;6.240;2023-06-26T01:38:21;7.22;;;4.68;;
31836;SDS011;18401;49.344;6.240;2023-06-26T01:40:51;6.90;;;4.57;;
31836;SDS011;18401;49.344;6.240;2023-06-26T01:46:06;11.00;;;4.55;;
31836;SDS011;18401;49.344;6.240;2023-06-26T01:48:47;6.38;;;4.30;;
31836;SDS011;18401;49.344;6.240;2023-06-26T01:51:20;8.50;;;4.30;;
31836;SDS011;18401;49.344;6.240;2023-06-26T01:53:52;8.48;;;4.40;;
31836;SDS011;18401;49.344;6.240;2023-06-26T01:56:20;5.90;;;4.28;;
31836;SDS011;18401;49.344;6.240;2023-06-26T01:58:48;6.63;;;4.63;;
31836;SDS011;18401;49.344;6.240;2023-06-26T02:01:19;5.03;;;4.20;;
31836;SDS011;18401;49.344;6.240;2023-06-26T02:03:45;5.78;;;4.25;;
31836;SDS011;18401;49.344;6.240;2023-06-26T02:06:11;12.52;;;4.53;;
31836;SDS011;18401;49.344;6.240;2023-06-26T02:08:36;7.50;;;4.65;;
31836;SDS011;18401;49.344;6.240;2023-06-26T02:11:02;5.90;;;4.28;;
31836;SDS011;18401;49.344;6.240;2023-06-26T02:13:28;7.55;;;4.38;;
31836;SDS011;18401;49.344;6.240;2023-06-26T02:15:53;6.75;;;4.50;;
31836;SDS011;18401;49.344;6.240;2023-06-26T02:18:19;7.10;;;4.72;;
31836;SDS011;18401;49.344;6.240;2023-06-26T02:20:47;9.15;;;5.03;;
31836;SDS011;18401;49.344;6.240;2023-06-26T02:23:13;8.50;;;5.20;;
31836;SDS011;18401;49.344;6.240;2023-06-26T02:25:39;7.70;;;5.18;;
31836;SDS011;18401;49.344;6.240;2023-06-26T02:28:05;9.90;;;4.70;;
31836;SDS011;18401;49.344;6.240;2023-06-26T02:30:30;9.15;;;4.93;;
31836;SDS011;18401;49.344;6.240;2023-06-26T02:32:56;7.05;;;4.50;;
31836;SDS011;18401;49.344;6.240;2023-06-26T02:35:21;14.45;;;4.95;;
31836;SDS011;18401;49.344;6.240;2023-06-26T02:37:47;8.75;;;4.97;;
31836;SDS011;18401;49.344;6.240;2023-06-26T02:40:13;10.25;;;5.57;;
31836;SDS011;18401;49.344;6.240;2023-06-26T02:42:38;7.75;;;4.93;;
31836;SDS011;18401;49.344;6.240;2023-06-26T02:45:04;10.57;;;5.32;;
31836;SDS011;18401;49.344;6.240;2023-06-26T02:47:30;8.23;;;5.22;;
31836;SDS011;18401;49.344;6.240;2023-06-26T02:49:56;7.30;;;5.03;;
31836;SDS011;18401;49.344;6.240;2023-06-26T02:52:21;14.05;;;5.28;;
31836;SDS011;18401;49.344;6.240;2023-06-26T02:54:47;8.07;;;4.82;;
31836;SDS011;18401;49.344;6.240;2023-06-26T02:57:12;8.50;;;5.22;;
31836;SDS011;18401;49.344;6.240;2023-06-26T02:59:39;8.13;;;5.00;;
31836;SDS011;18401;49.344;6.240;2023-06-26T03:02:05;10.38;;;4.90;;
31836;SDS011;18401;49.344;6.240;2023-06-26T03:04:30;5.90;;;4.30;;
31836;SDS011;18401;49.344;6.240;2023-06-26T03:06:56;6.90;;;4.65;;
31836;SDS011;18401;49.344;6.240;2023-06-26T03:09:22;7.85;;;4.47;;
31836;SDS011;18401;49.344;6.240;2023-06-26T03:11:48;7.38;;;4.03;;
31836;SDS011;18401;49.344;6.240;2023-06-26T03:14:13;7.95;;;4.85;;
31836;SDS011;18401;49.344;6.240;2023-06-26T03:16:39;6.45;;;4.90;;
31836;SDS011;18401;49.344;6.240;2023-06-26T03:19:06;10.93;;;5.22;;
31836;SDS011;18401;49.344;6.240;2023-06-26T03:21:32;7.75;;;4.85;;
31836;SDS011;18401;49.344;6.240;2023-06-26T03:23:58;7.40;;;5.03;;
31836;SDS011;18401;49.344;6.240;2023-06-26T03:26:23;9.50;;;4.90;;
31836;SDS011;18401;49.344;6.240;2023-06-26T03:28:52;8.60;;;4.40;;
31836;SDS011;18401;49.344;6.240;2023-06-26T03:31:19;7.47;;;5.30;;
31836;SDS011;18401;49.344;6.240;2023-06-26T03:33:44;8.02;;;5.38;;
31836;SDS011;18401;49.344;6.240;2023-06-26T03:36:10;7.00;;;4.72;;
31836;SDS011;18401;49.344;6.240;2023-06-26T03:38:36;6.55;;;4.70;;
31836;SDS011;18401;49.344;6.240;2023-06-26T03:41:02;7.13;;;4.95;;
31836;SDS011;18401;49.344;6.240;2023-06-26T03:43:27;8.50;;;4.25;;
31836;SDS011;18401;49.344;6.240;2023-06-26T03:45:53;9.02;;;4.50;;
31836;SDS011;18401;49.344;6.240;2023-06-26T03:48:19;8.45;;;3.88;;
31836;SDS011;18401;49.344;6.240;2023-06-26T03:50:45;6.65;;;3.97;;
31836;SDS011;18401;49.344;6.240;2023-06-26T03:53:10;8.88;;;4.70;;
31836;SDS011;18401;49.344;6.240;2023-06-26T03:55:37;10.43;;;4.28;;
31836;SDS011;18401;49.344;6.240;2023-06-26T03:58:03;13.98;;;5.45;;
31836;SDS011;18401;49.344;6.240;2023-06-26T04:00:29;13.50;;;6.45;;
31836;SDS011;18401;49.344;6.240;2023-06-26T04:02:55;8.23;;;5.70;;
31836;SDS011;18401;49.344;6.240;2023-06-26T04:05:22;9.50;;;6.13;;
31836;SDS011;18401;49.344;6.240;2023-06-26T04:07:51;8.00;;;5.13;;
31836;SDS011;18401;49.344;6.240;2023-06-26T04:10:17;11.05;;;5.10;;
31836;SDS011;18401;49.344;6.240;2023-06-26T04:12:43;8.73;;;4.78;;
31836;SDS011;18401;49.344;6.240;2023-06-26T04:15:09;18.42;;;5.65;;
31836;SDS011;18401;49.344;6.240;2023-06-26T04:17:35;9.25;;;5.50;;
31836;SDS011;18401;49.344;6.240;2023-06-26T04:20:01;9.27;;;5.15;;
31836;SDS011;18401;49.344;6.240;2023-06-26T04:22:31;17.45;;;5.70;;
31836;SDS011;18401;49.344;6.240;2023-06-26T04:24:57;9.13;;;5.00;;
31836;SDS011;18401;49.344;6.240;2023-06-26T04:27:23;10.50;;;4.78;;
31836;SDS011;18401;49.344;6.240;2023-06-26T04:29:48;8.85;;;4.90;;
31836;SDS011;18401;49.344;6.240;2023-06-26T04:32:14;8.05;;;5.15;;
31836;SDS011;18401;49.344;6.240;2023-06-26T04:34:40;8.48;;;4.70;;
31836;SDS011;18401;49.344;6.240;2023-06-26T04:37:08;14.23;;;5.35;;
31836;SDS011;18401;49.344;6.240;2023-06-26T04:39:34;6.65;;;4.75;;
31836;SDS011;18401;49.344;6.240;2023-06-26T04:42:02;13.68;;;5.72;;
31836;SDS011;18401;49.344;6.240;2023-06-26T04:44:28;11.50;;;5.15;;
31836;SDS011;18401;49.344;6.240;2023-06-26T04:46:54;12.98;;;5.47;;
31836;SDS011;18401;49.344;6.240;2023-06-26T04:49:20;10.20;;;5.38;;
31836;SDS011;18401;49.344;6.240;2023-06-26T04:51:45;7.97;;;4.65;;
31836;SDS011;18401;49.344;6.240;2023-06-26T04:54:11;16.20;;;5.18;;
31836;SDS011;18401;49.344;6.240;2023-06-26T04:56:37;9.15;;;5.78;;
31836;SDS011;18401;49.344;6.240;2023-06-26T04:59:05;8.23;;;4.30;;
31836;SDS011;18401;49.344;6.240;2023-06-26T05:01:30;6.97;;;4.65;;
31836;SDS011;18401;49.344;6.240;2023-06-26T05:03:57;14.07;;;5.20;;
31836;SDS011;18401;49.344;6.240;2023-06-26T05:06:26;6.85;;;4.47;;
31836;SDS011;18401;49.344;6.240;2023-06-26T05:08:51;7.90;;;4.68;;
31836;SDS011;18401;49.344;6.240;2023-06-26T05:11:17;9.00;;;4.50;;
31836;SDS011;18401;49.344;6.240;2023-06-26T05:13:43;10.82;;;4.32;;
31836;SDS011;18401;49.344;6.240;2023-06-26T05:16:08;9.77;;;4.80;;
31836;SDS011;18401;49.344;6.240;2023-06-26T05:18:35;5.15;;;4.43;;
31836;SDS011;18401;49.344;6.240;2023-06-26T05:21:01;6.45;;;4.20;;
31836;SDS011;18401;49.344;6.240;2023-06-26T05:23:27;8.70;;;4.40;;
31836;SDS011;18401;49.344;6.240;2023-06-26T05:25:56;6.63;;;4.35;;
31836;SDS011;18401;49.344;6.240;2023-06-26T05:28:22;6.05;;;4.35;;
31836;SDS011;18401;49.344;6.240;2023-06-26T05:30:49;6.25;;;3.80;;
31836;SDS011;18401;49.344;6.240;2023-06-26T05:33:16;8.85;;;4.05;;
31836;SDS011;18401;49.344;6.240;2023-06-26T05:35:44;6.20;;;3.70;;
31836;SDS011;18401;49.344;6.240;2023-06-26T05:38:10;9.23;;;5.32;;
31836;SDS011;18401;49.344;6.240;2023-06-26T05:40:38;5.10;;;2.83;;
31836;SDS011;18401;49.344;6.240;2023-06-26T05:43:05;5.05;;;2.83;;
31836;SDS011;18401;49.344;6.240;2023-06-26T05:45:32;4.45;;;2.92;;
31836;SDS011;18401;49.344;6.240;2023-06-26T05:47:57;3.92;;;2.85;;
31836;SDS011;18401;49.344;6.240;2023-06-26T05:50:24;5.65;;;2.42;;
31836;SDS011;18401;49.344;6.240;2023-06-26T05:52:50;3.05;;;2.42;;
31836;SDS011;18401;49.344;6.240;2023-06-26T05:55:16;5.22;;;2.47;;
31836;SDS011;18401;49.344;6.240;2023-06-26T05:57:42;4.47;;;2.30;;
31836;SDS011;18401;49.344;6.240;2023-06-26T06:00:10;3.88;;;2.20;;
31836;SDS011;18401;49.344;6.240;2023-06-26T06:02:37;3.33;;;2.05;;
31836;SDS011;18401;49.344;6.240;2023-06-26T06:05:03;3.30;;;2.60;;
31836;SDS011;18401;49.344;6.240;2023-06-26T06:07:30;4.13;;;2.83;;
31836;SDS011;18401;49.344;6.240;2023-06-26T06:09:57;4.00;;;1.80;;
31836;SDS011;18401;49.344;6.240;2023-06-26T06:12:23;3.38;;;1.65;;
31836;SDS011;18401;49.344;6.240;2023-06-26T06:14:49;2.65;;;1.88;;
31836;SDS011;18401;49.344;6.240;2023-06-26T06:17:14;1.98;;;1.58;;
31836;SDS011;18401;49.344;6.240;2023-06-26T06:19:40;6.28;;;2.17;;
31836;SDS011;18401;49.344;6.240;2023-06-26T06:22:06;3.25;;;2.40;;
31836;SDS011;18401;49.344;6.240;2023-06-26T06:24:31;3.75;;;2.65;;
31836;SDS011;18401;49.344;6.240;2023-06-26T06:26:57;5.35;;;2.17;;
31836;SDS011;18401;49.344;6.240;2023-06-26T06:29:22;1.80;;;1.67;;
31836;SDS011;18401;49.344;6.240;2023-06-26T06:31:48;4.75;;;2.20;;
31836;SDS011;18401;49.344;6.240;2023-06-26T06:34:14;2.40;;;1.50;;
31836;SDS011;18401;49.344;6.240;2023-06-26T06:36:40;2.75;;;1.70;;
31836;SDS011;18401;49.344;6.240;2023-06-26T06:39:05;2.83;;;1.88;;
31836;SDS011;18401;49.344;6.240;2023-06-26T06:41:31;6.70;;;2.58;;
31836;SDS011;18401;49.344;6.240;2023-06-26T06:43:56;10.68;;;2.63;;
31836;SDS011;18401;49.344;6.240;2023-06-26T06:46:22;5.45;;;2.47;;
31836;SDS011;18401;49.344;6.240;2023-06-26T06:48:48;6.93;;;2.33;;
31836;SDS011;18401;49.344;6.240;2023-06-26T06:51:14;4.68;;;2.00;;
31836;SDS011;18401;49.344;6.240;2023-06-26T06:53:39;3.80;;;2.20;;
31836;SDS011;18401;49.344;6.240;2023-06-26T06:56:05;3.63;;;2.25;;
31836;SDS011;18401;49.344;6.240;2023-06-26T06:58:31;4.20;;;2.22;;
31836;SDS011;18401;49.344;6.240;2023-06-26T07:00:58;3.10;;;2.25;;
31836;SDS011;18401;49.344;6.240;2023-06-26T07:03:24;2.08;;;1.73;;
31836;SDS011;18401;49.344;6.240;2023-06-26T07:05:50;6.15;;;2.25;;
31836;SDS011;18401;49.344;6.240;2023-06-26T07:08:16;4.80;;;1.88;;
31836;SDS011;18401;49.344;6.240;2023-06-26T07:10:42;3.60;;;2.00;;
31836;SDS011;18401;49.344;6.240;2023-06-26T07:13:07;5.70;;;1.70;;
31836;SDS011;18401;49.344;6.240;2023-06-26T07:15:33;4.03;;;1.67;;
31836;SDS011;18401;49.344;6.240;2023-06-26T07:17:59;2.85;;;1.90;;
31836;SDS011;18401;49.344;6.240;2023-06-26T07:20:24;4.90;;;2.00;;
31836;SDS011;18401;49.344;6.240;2023-06-26T07:22:50;3.78;;;1.67;;
31836;SDS011;18401;49.344;6.240;2023-06-26T07:25:17;5.75;;;1.58;;
31836;SDS011;18401;49.344;6.240;2023-06-26T07:27:42;2.22;;;1.33;;
31836;SDS011;18401;49.344;6.240;2023-06-26T07:30:09;4.20;;;1.52;;
31836;SDS011;18401;49.344;6.240;2023-06-26T07:32:36;6.40;;;3.63;;
31836;SDS011;18401;49.344;6.240;2023-06-26T07:35:02;2.03;;;1.48;;
31836;SDS011;18401;49.344;6.240;2023-06-26T07:37:28;5.88;;;1.50;;
31836;SDS011;18401;49.344;6.240;2023-06-26T07:39:54;2.17;;;1.40;;
31836;SDS011;18401;49.344;6.240;2023-06-26T07:42:20;2.45;;;1.23;;
31836;SDS011;18401;49.344;6.240;2023-06-26T07:44:45;2.40;;;1.30;;
31836;SDS011;18401;49.344;6.240;2023-06-26T07:47:11;2.28;;;1.20;;
31836;SDS011;18401;49.344;6.240;2023-06-26T07:49:37;2.85;;;1.38;;
31836;SDS011;18401;49.344;6.240;2023-06-26T07:52:04;1.77;;;1.33;;
31836;SDS011;18401;49.344;6.240;2023-06-26T07:54:30;4.45;;;1.40;;
31836;SDS011;18401;49.344;6.240;2023-06-26T07:59:23;3.42;;;1.38;;
31836;SDS011;18401;49.344;6.240;2023-06-26T08:01:50;4.93;;;1.42;;
31836;SDS011;18401;49.344;6.240;2023-06-26T08:04:20;6.43;;;1.45;;
31836;SDS011;18401;49.344;6.240;2023-06-26T08:06:48;5.43;;;1.60;;
31836;SDS011;18401;49.344;6.240;2023-06-26T08:09:15;3.22;;;1.38;;
31836;SDS011;18401;49.344;6.240;2023-06-26T08:11:42;5.53;;;1.40;;
31836;SDS011;18401;49.344;6.240;2023-06-26T08:14:08;5.28;;;1.63;;
31836;SDS011;18401;49.344;6.240;2023-06-26T08:16:33;5.00;;;1.58;;
31836;SDS011;18401;49.344;6.240;2023-06-26T08:18:59;4.20;;;1.63;;
31836;SDS011;18401;49.344;6.240;2023-06-26T08:21:25;7.47;;;2.20;;
31836;SDS011;18401;49.344;6.240;2023-06-26T08:23:50;5.05;;;1.38;;
31836;SDS011;18401;49.344;6.240;2023-06-26T08:26:16;4.35;;;1.60;;
31836;SDS011;18401;49.344;6.240;2023-06-26T08:28:42;8.77;;;1.70;;
31836;SDS011;18401;49.344;6.240;2023-06-26T08:31:07;6.18;;;2.13;;
31836;SDS011;18401;49.344;6.240;2023-06-26T08:33:33;6.15;;;1.80;;
31836;SDS011;18401;49.344;6.240;2023-06-26T08:35:59;8.00;;;1.80;;
31836;SDS011;18401;49.344;6.240;2023-06-26T08:38:25;4.95;;;1.60;;
31836;SDS011;18401;49.344;6.240;2023-06-26T08:40:51;4.20;;;1.70;;
31836;SDS011;18401;49.344;6.240;2023-06-26T08:43:16;10.63;;;1.85;;
31836;SDS011;18401;49.344;6.240;2023-06-26T08:45:42;8.80;;;1.65;;
31836;SDS011;18401;49.344;6.240;2023-06-26T08:48:08;3.55;;;1.92;;
31836;SDS011;18401;49.344;6.240;2023-06-26T08:50:35;6.15;;;1.42;;
31836;SDS011;18401;49.344;6.240;2023-06-26T08:53:49;6.82;;;2.25;;
31836;SDS011;18401;49.344;6.240;2023-06-26T08:55:52;10.85;;;2.15;;
31836;SDS011;18401;49.344;6.240;2023-06-26T08:58:19;6.75;;;1.48;;
31836;SDS011;18401;49.344;6.240;2023-06-26T09:00:45;6.72;;;1.75;;
31836;SDS011;18401;49.344;6.240;2023-06-26T09:03:11;6.85;;;1.60;;
31836;SDS011;18401;49.344;6.240;2023-06-26T09:05:38;3.80;;;1.10;;
31836;SDS011;18401;49.344;6.240;2023-06-26T09:08:04;6.47;;;1.23;;
31836;SDS011;18401;49.344;6.240;2023-06-26T09:10:30;3.67;;;1.35;;
31836;SDS011;18401;49.344;6.240;2023-06-26T09:12:56;3.85;;;1.10;;
31836;SDS011;18401;49.344;6.240;2023-06-26T09:15:23;5.88;;;1.30;;
31836;SDS011;18401;49.344;6.240;2023-06-26T09:17:49;5.55;;;1.73;;
31836;SDS011;18401;49.344;6.240;2023-06-26T09:20:14;5.00;;;1.70;;
31836;SDS011;18401;49.344;6.240;2023-06-26T09:22:41;3.00;;;1.10;;
31836;SDS011;18401;49.344;6.240;2023-06-26T09:25:09;2.85;;;1.20;;
31836;SDS011;18401;49.344;6.240;2023-06-26T09:27:35;3.15;;;1.27;;
31836;SDS011;18401;49.344;6.240;2023-06-26T09:30:02;6.35;;;1.55;;
31836;SDS011;18401;49.344;6.240;2023-06-26T09:32:28;3.65;;;1.05;;
31836;SDS011;18401;49.344;6.240;2023-06-26T09:34:54;5.20;;;1.30;;
31836;SDS011;18401;49.344;6.240;2023-06-26T09:37:21;5.07;;;1.10;;
31836;SDS011;18401;49.344;6.240;2023-06-26T09:39:47;7.72;;;1.10;;
31836;SDS011;18401;49.344;6.240;2023-06-26T09:42:14;7.68;;;1.10;;
31836;SDS011;18401;49.344;6.240;2023-06-26T09:44:58;3.83;;;1.48;;
31836;SDS011;18401;49.344;6.240;2023-06-26T09:47:25;5.17;;;1.10;;
31836;SDS011;18401;49.344;6.240;2023-06-26T09:49:50;4.68;;;0.90;;
31836;SDS011;18401;49.344;6.240;2023-06-26T09:52:17;3.72;;;0.80;;
31836;SDS011;18401;49.344;6.240;2023-06-26T09:54:44;5.65;;;1.10;;
31836;SDS011;18401;49.344;6.240;2023-06-26T09:57:11;3.95;;;1.15;;
31836;SDS011;18401;49.344;6.240;2023-06-26T09:59:38;2.80;;;0.90;;
31836;SDS011;18401;49.344;6.240;2023-06-26T10:02:05;4.22;;;0.90;;
31836;SDS011;18401;49.344;6.240;2023-06-26T10:04:31;2.65;;;1.08;;
31836;SDS011;18401;49.344;6.240;2023-06-26T10:06:57;10.07;;;1.00;;
31836;SDS011;18401;49.344;6.240;2023-06-26T10:09:27;7.60;;;1.00;;
31836;SDS011;18401;49.344;6.240;2023-06-26T10:14:31;3.00;;;0.65;;
31836;SDS011;18401;49.344;6.240;2023-06-26T10:17:01;3.53;;;0.80;;
31836;SDS011;18401;49.344;6.240;2023-06-26T10:19:29;3.22;;;0.88;;
31836;SDS011;18401;49.344;6.240;2023-06-26T10:21:57;2.92;;;0.80;;
31836;SDS011;18401;49.344;6.240;2023-06-26T10:24:24;6.88;;;1.13;;
31836;SDS011;18401;49.344;6.240;2023-06-26T10:27:02;2.13;;;1.13;;
31836;SDS011;18401;49.344;6.240;2023-06-26T10:29:33;7.15;;;1.15;;
31836;SDS011;18401;49.344;6.240;2023-06-26T10:32:00;9.35;;;1.27;;
31836;SDS011;18401;49.344;6.240;2023-06-26T10:34:29;2.55;;;1.02;;
31836;SDS011;18401;49.344;6.240;2023-06-26T10:36:59;14.20;;;1.00;;
31836;SDS011;18401;49.344;6.240;2023-06-26T10:39:50;4.07;;;0.70;;
31836;SDS011;18401;49.344;6.240;2023-06-26T10:42:20;7.63;;;0.60;;
31836;SDS011;18401;49.344;6.240;2023-06-26T10:45:11;1.65;;;0.60;;
31836;SDS011;18401;49.344;6.240;2023-06-26T10:47:46;1.42;;;0.50;;
31836;SDS011;18401;49.344;6.240;2023-06-26T10:55:55;2.15;;;0.63;;
31836;SDS011;18401;49.344;6.240;2023-06-26T10:58:40;3.38;;;0.57;;
31836;SDS011;18401;49.344;6.240;2023-06-26T11:01:19;2.25;;;0.60;;
31836;SDS011;18401;49.344;6.240;2023-06-26T11:04:04;0.63;;;0.50;;
31836;SDS011;18401;49.344;6.240;2023-06-26T11:06:31;3.83;;;0.50;;
31836;SDS011;18401;49.344;6.240;2023-06-26T11:09:01;1.77;;;0.50;;
31836;SDS011;18401;49.344;6.240;2023-06-26T11:14:20;3.03;;;0.65;;
31836;SDS011;18401;49.344;6.240;2023-06-26T11:16:48;5.40;;;1.10;;
31836;SDS011;18401;49.344;6.240;2023-06-26T11:19:15;2.33;;;0.70;;
31836;SDS011;18401;49.344;6.240;2023-06-26T11:21:44;5.68;;;0.73;;
31836;SDS011;18401;49.344;6.240;2023-06-26T11:24:11;7.18;;;0.55;;
31836;SDS011;18401;49.344;6.240;2023-06-26T11:26:38;0.65;;;0.40;;
31836;SDS011;18401;49.344;6.240;2023-06-26T11:29:07;2.40;;;0.55;;
31836;SDS011;18401;49.344;6.240;2023-06-26T11:31:34;5.40;;;0.50;;
31836;SDS011;18401;49.344;6.240;2023-06-26T11:34:03;5.32;;;0.60;;
31836;SDS011;18401;49.344;6.240;2023-06-26T11:36:31;2.88;;;0.60;;
31836;SDS011;18401;49.344;6.240;2023-06-26T11:38:57;2.53;;;0.60;;
31836;SDS011;18401;49.344;6.240;2023-06-26T11:41:28;1.75;;;0.52;;
31836;SDS011;18401;49.344;6.240;2023-06-26T11:43:55;2.13;;;0.82;;
31836;SDS011;18401;49.344;6.240;2023-06-26T11:46:21;1.35;;;0.40;;
31836;SDS011;18401;49.344;6.240;2023-06-26T11:48:50;1.33;;;0.45;;
31836;SDS011;18401;49.344;6.240;2023-06-26T11:51:17;5.28;;;0.77;;
31836;SDS011;18401;49.344;6.240;2023-06-26T11:53:43;4.85;;;1.17;;
31836;SDS011;18401;49.344;6.240;2023-06-26T11:56:14;4.38;;;0.82;;
31836;SDS011;18401;49.344;6.240;2023-06-26T11:58:56;4.22;;;0.57;;
31836;SDS011;18401;49.344;6.240;2023-06-26T12:04:01;2.40;;;0.60;;
31836;SDS011;18401;49.344;6.240;2023-06-26T12:06:30;4.72;;;0.63;;
31836;SDS011;18401;49.344;6.240;2023-06-26T12:08:58;4.38;;;0.90;;
31836;SDS011;18401;49.344;6.240;2023-06-26T12:11:25;4.00;;;0.88;;
31836;SDS011;18401;49.344;6.240;2023-06-26T12:13:53;4.65;;;0.60;;
31836;SDS011;18401;49.344;6.240;2023-06-26T12:16:19;5.10;;;0.93;;
31836;SDS011;18401;49.344;6.240;2023-06-26T12:18:45;4.68;;;0.82;;
31836;SDS011;18401;49.344;6.240;2023-06-26T12:24:02;6.30;;;0.70;;
31836;SDS011;18401;49.344;6.240;2023-06-26T12:26:29;3.05;;;0.57;;
31836;SDS011;18401;49.344;6.240;2023-06-26T12:29:02;6.28;;;0.70;;
31836;SDS011;18401;49.344;6.240;2023-06-26T12:31:28;7.38;;;1.00;;
31836;SDS011;18401;49.344;6.240;2023-06-26T12:33:54;0.82;;;0.68;;
31836;SDS011;18401;49.344;6.240;2023-06-26T12:36:19;3.97;;;0.70;;
31836;SDS011;18401;49.344;6.240;2023-06-26T12:38:45;5.95;;;0.90;;
31836;SDS011;18401;49.344;6.240;2023-06-26T12:41:13;6.63;;;0.80;;
31836;SDS011;18401;49.344;6.240;2023-06-26T12:43:39;2.22;;;0.65;;
31836;SDS011;18401;49.344;6.240;2023-06-26T12:46:05;1.90;;;0.50;;
31836;SDS011;18401;49.344;6.240;2023-06-26T12:48:44;1.70;;;0.55;;
31836;SDS011;18401;49.344;6.240;2023-06-26T12:51:15;1.83;;;0.70;;
31836;SDS011;18401;49.344;6.240;2023-06-26T12:53:41;0.93;;;0.40;;
31836;SDS011;18401;49.344;6.240;2023-06-26T12:56:10;4.20;;;0.93;;
31836;SDS011;18401;49.344;6.240;2023-06-26T12:58:36;3.17;;;0.68;;
31836;SDS011;18401;49.344;6.240;2023-06-26T13:01:03;4.88;;;0.85;;
31836;SDS011;18401;49.344;6.240;2023-06-26T13:03:30;2.78;;;0.80;;
31836;SDS011;18401;49.344;6.240;2023-06-26T13:05:56;0.50;;;0.38;;
31836;SDS011;18401;49.344;6.240;2023-06-26T13:08:22;8.23;;;0.90;;
31836;SDS011;18401;49.344;6.240;2023-06-26T13:10:48;8.48;;;0.90;;
31836;SDS011;18401;49.344;6.240;2023-06-26T13:13:14;0.93;;;0.60;;
31836;SDS011;18401;49.344;6.240;2023-06-26T13:15:39;2.83;;;1.23;;
31836;SDS011;18401;49.344;6.240;2023-06-26T13:18:05;1.10;;;0.45;;
31836;SDS011;18401;49.344;6.240;2023-06-26T13:20:31;4.00;;;0.60;;
31836;SDS011;18401;49.344;6.240;2023-06-26T13:22:56;1.40;;;0.50;;
31836;SDS011;18401;49.344;6.240;2023-06-26T13:25:22;2.13;;;0.50;;
31836;SDS011;18401;49.344;6.240;2023-06-26T13:27:48;5.03;;;0.75;;
31836;SDS011;18401;49.344;6.240;2023-06-26T13:30:17;1.75;;;0.50;;
31836;SDS011;18401;49.344;6.240;2023-06-26T13:32:42;2.65;;;0.77;;
31836;SDS011;18401;49.344;6.240;2023-06-26T13:35:08;3.50;;;0.55;;
31836;SDS011;18401;49.344;6.240;2023-06-26T13:37:34;1.63;;;0.43;;
31836;SDS011;18401;49.344;6.240;2023-06-26T13:40:01;3.85;;;1.05;;
31836;SDS011;18401;49.344;6.240;2023-06-26T13:42:28;3.25;;;0.90;;
31836;SDS011;18401;49.344;6.240;2023-06-26T13:44:54;2.53;;;0.80;;
31836;SDS011;18401;49.344;6.240;2023-06-26T13:47:20;4.03;;;0.77;;
31836;SDS011;18401;49.344;6.240;2023-06-26T13:49:47;1.67;;;0.60;;
31836;SDS011;18401;49.344;6.240;2023-06-26T13:52:12;14.63;;;1.63;;
31836;SDS011;18401;49.344;6.240;2023-06-26T13:54:38;2.60;;;0.95;;
31836;SDS011;18401;49.344;6.240;2023-06-26T13:57:08;3.47;;;0.60;;
31836;SDS011;18401;49.344;6.240;2023-06-26T13:59:36;1.48;;;0.50;;
31836;SDS011;18401;49.344;6.240;2023-06-26T14:02:02;6.47;;;1.00;;
31836;SDS011;18401;49.344;6.240;2023-06-26T14:04:30;4.07;;;0.70;;
31836;SDS011;18401;49.344;6.240;2023-06-26T14:06:56;6.93;;;0.93;;
31836;SDS011;18401;49.344;6.240;2023-06-26T14:09:21;4.95;;;1.00;;
31836;SDS011;18401;49.344;6.240;2023-06-26T14:11:47;4.38;;;0.82;;
31836;SDS011;18401;49.344;6.240;2023-06-26T14:14:13;2.45;;;0.60;;
31836;SDS011;18401;49.344;6.240;2023-06-26T14:16:38;2.80;;;0.80;;
31836;SDS011;18401;49.344;6.240;2023-06-26T14:19:07;2.38;;;0.60;;
31836;SDS011;18401;49.344;6.240;2023-06-26T14:21:38;5.35;;;0.88;;
31836;SDS011;18401;49.344;6.240;2023-06-26T14:24:03;4.78;;;0.85;;
31836;SDS011;18401;49.344;6.240;2023-06-26T14:26:29;3.83;;;0.60;;
31836;SDS011;18401;49.344;6.240;2023-06-26T14:28:55;4.32;;;0.90;;
31836;SDS011;18401;49.344;6.240;2023-06-26T14:31:21;3.35;;;0.70;;
31836;SDS011;18401;49.344;6.240;2023-06-26T14:33:46;4.13;;;0.95;;
31836;SDS011;18401;49.344;6.240;2023-06-26T14:36:12;4.97;;;1.00;;
31836;SDS011;18401;49.344;6.240;2023-06-26T14:38:38;2.97;;;0.75;;
31836;SDS011;18401;49.344;6.240;2023-06-26T14:41:03;2.88;;;1.05;;
31836;SDS011;18401;49.344;6.240;2023-06-26T14:43:29;5.05;;;0.80;;
31836;SDS011;18401;49.344;6.240;2023-06-26T14:45:55;8.07;;;1.10;;
31836;SDS011;18401;49.344;6.240;2023-06-26T14:48:20;3.78;;;0.82;;
31836;SDS011;18401;49.344;6.240;2023-06-26T14:50:46;3.58;;;0.80;;
31836;SDS011;18401;49.344;6.240;2023-06-26T14:53:12;4.53;;;0.90;;
31836;SDS011;18401;49.344;6.240;2023-06-26T14:55:37;2.75;;;0.93;;
31836;SDS011;18401;49.344;6.240;2023-06-26T14:58:03;1.92;;;0.68;;
31836;SDS011;18401;49.344;6.240;2023-06-26T15:00:29;3.35;;;0.52;;
31836;SDS011;18401;49.344;6.240;2023-06-26T15:02:54;4.03;;;0.88;;
31836;SDS011;18401;49.344;6.240;2023-06-26T15:05:23;4.25;;;0.88;;
31836;SDS011;18401;49.344;6.240;2023-06-26T15:07:49;8.50;;;0.90;;